sensor_id;sensor_type;location;lat;lon;timestamp;P1;durP1;ratioP1;P2;durP2;ratioP2
8675;SDS011;4375;52.486;13.424;2023-02-11T00:02:02;57.87;;;23.33;;
8675;SDS011;4375;52.486;13.424;2023-02-11T00:04:29;59.23;;;24.23;;
8675;SDS011;4375;52.486;13.424;2023-02-11T00:06:55;62.83;;;22.33;;
8675;SDS011;4375;52.486;13.424;2023-02-11T00:09:21;63.07;;;24.23;;
8675;SDS011;4375;52.486;13.424;2023-02-11T00:11:47;58.90;;;22.03;;
8675;SDS011;4375;52.486;13.424;2023-02-11T00:14:12;63.13;;;25.27;;
8675;SDS011;4375;52.486;13.424;2023-02-11T00:16:38;52.83;;;23.03;;
8675;SDS011;4375;52.486;13.424;2023-02-11T00:19:04;56.23;;;21.80;;
8675;SDS011;4375;52.486;13.424;2023-02-11T00:21:30;56.40;;;23.97;;
8675;SDS011;4375;52.486;13.424;2023-02-11T00:23:57;60.77;;;22.70;;
8675;SDS011;4375;52.486;13.424;2023-02-11T00:26:26;58.43;;;23.33;;
8675;SDS011;4375;52.486;13.424;2023-02-11T00:28:54;61.00;;;25.67;;
8675;SDS011;4375;52.486;13.424;2023-02-11T00:31:21;55.67;;;24.33;;
8675;SDS011;4375;52.486;13.424;2023-02-11T00:33:48;60.10;;;23.40;;
8675;SDS011;4375;52.486;13.424;2023-02-11T00:36:18;60.30;;;24.63;;
8675;SDS011;4375;52.486;13.424;2023-02-11T00:38:49;54.67;;;22.97;;
8675;SDS011;4375;52.486;13.424;2023-02-11T00:41:16;63.83;;;23.70;;
8675;SDS011;4375;52.486;13.424;2023-02-11T00:43:42;52.20;;;20.97;;
8675;SDS011;4375;52.486;13.424;2023-02-11T00:46:08;57.50;;;23.30;;
8675;SDS011;4375;52.486;13.424;2023-02-11T00:48:34;67.67;;;21.90;;
8675;SDS011;4375;52.486;13.424;2023-02-11T00:51:00;55.53;;;23.40;;
8675;SDS011;4375;52.486;13.424;2023-02-11T00:53:26;56.57;;;22.00;;
8675;SDS011;4375;52.486;13.424;2023-02-11T00:55:51;61.73;;;23.03;;
8675;SDS011;4375;52.486;13.424;2023-02-11T00:58:17;57.47;;;22.90;;
8675;SDS011;4375;52.486;13.424;2023-02-11T01:00:43;52.00;;;21.73;;
8675;SDS011;4375;52.486;13.424;2023-02-11T01:03:09;52.10;;;21.53;;
8675;SDS011;4375;52.486;13.424;2023-02-11T01:05:35;54.80;;;23.10;;
8675;SDS011;4375;52.486;13.424;2023-02-11T01:08:00;61.37;;;21.57;;
8675;SDS011;4375;52.486;13.424;2023-02-11T01:10:26;53.10;;;21.50;;
8675;SDS011;4375;52.486;13.424;2023-02-11T01:12:52;55.90;;;20.53;;
8675;SDS011;4375;52.486;13.424;2023-02-11T01:15:18;57.60;;;22.80;;
8675;SDS011;4375;52.486;13.424;2023-02-11T01:17:44;50.67;;;24.17;;
8675;SDS011;4375;52.486;13.424;2023-02-11T01:20:15;60.10;;;23.27;;
8675;SDS011;4375;52.486;13.424;2023-02-11T01:22:43;54.30;;;22.20;;
8675;SDS011;4375;52.486;13.424;2023-02-11T01:25:09;61.83;;;23.03;;
8675;SDS011;4375;52.486;13.424;2023-02-11T01:27:35;56.63;;;23.17;;
8675;SDS011;4375;52.486;13.424;2023-02-11T01:30:02;57.00;;;23.17;;
8675;SDS011;4375;52.486;13.424;2023-02-11T01:32:28;58.70;;;22.80;;
8675;SDS011;4375;52.486;13.424;2023-02-11T01:34:54;53.10;;;21.23;;
8675;SDS011;4375;52.486;13.424;2023-02-11T01:37:19;53.00;;;21.60;;
8675;SDS011;4375;52.486;13.424;2023-02-11T01:39:45;48.90;;;20.53;;
8675;SDS011;4375;52.486;13.424;2023-02-11T01:42:14;53.80;;;21.10;;
8675;SDS011;4375;52.486;13.424;2023-02-11T01:44:42;49.97;;;20.83;;
8675;SDS011;4375;52.486;13.424;2023-02-11T01:47:08;51.60;;;21.80;;
8675;SDS011;4375;52.486;13.424;2023-02-11T01:49:35;49.40;;;21.77;;
8675;SDS011;4375;52.486;13.424;2023-02-11T01:54:39;53.33;;;22.47;;
8675;SDS011;4375;52.486;13.424;2023-02-11T01:57:36;55.60;;;21.93;;
8675;SDS011;4375;52.486;13.424;2023-02-11T02:00:06;56.30;;;22.53;;
8675;SDS011;4375;52.486;13.424;2023-02-11T02:08:05;58.00;;;20.77;;
8675;SDS011;4375;52.486;13.424;2023-02-11T02:10:34;59.17;;;23.23;;
8675;SDS011;4375;52.486;13.424;2023-02-11T02:13:04;56.83;;;22.77;;
8675;SDS011;4375;52.486;13.424;2023-02-11T02:15:34;61.93;;;23.30;;
8675;SDS011;4375;52.486;13.424;2023-02-11T02:20:51;53.17;;;22.30;;
8675;SDS011;4375;52.486;13.424;2023-02-11T02:23:34;50.30;;;22.87;;
8675;SDS011;4375;52.486;13.424;2023-02-11T02:28:59;51.57;;;22.40;;
8675;SDS011;4375;52.486;13.424;2023-02-11T02:31:51;59.13;;;22.23;;
8675;SDS011;4375;52.486;13.424;2023-02-11T02:34:42;49.60;;;21.50;;
8675;SDS011;4375;52.486;13.424;2023-02-11T02:39:53;56.97;;;23.33;;
8675;SDS011;4375;52.486;13.424;2023-02-11T02:42:21;66.07;;;23.47;;
8675;SDS011;4375;52.486;13.424;2023-02-11T02:44:50;58.97;;;23.63;;
8675;SDS011;4375;52.486;13.424;2023-02-11T02:47:17;63.83;;;23.13;;
8675;SDS011;4375;52.486;13.424;2023-02-11T02:49:43;55.27;;;23.43;;
8675;SDS011;4375;52.486;13.424;2023-02-11T02:52:17;58.13;;;23.67;;
8675;SDS011;4375;52.486;13.424;2023-02-11T03:03:44;52.47;;;22.77;;
8675;SDS011;4375;52.486;13.424;2023-02-11T03:09:13;60.03;;;26.13;;
8675;SDS011;4375;52.486;13.424;2023-02-11T03:11:46;63.77;;;25.17;;
8675;SDS011;4375;52.486;13.424;2023-02-11T03:14:13;54.07;;;24.07;;
8675;SDS011;4375;52.486;13.424;2023-02-11T03:16:42;57.70;;;23.87;;
8675;SDS011;4375;52.486;13.424;2023-02-11T03:19:11;60.37;;;24.20;;
8675;SDS011;4375;52.486;13.424;2023-02-11T03:21:54;52.40;;;24.63;;
8675;SDS011;4375;52.486;13.424;2023-02-11T03:24:28;64.13;;;26.50;;
8675;SDS011;4375;52.486;13.424;2023-02-11T03:27:00;59.93;;;25.27;;
8675;SDS011;4375;52.486;13.424;2023-02-11T03:32:06;52.57;;;22.87;;
8675;SDS011;4375;52.486;13.424;2023-02-11T03:37:38;62.40;;;25.90;;
8675;SDS011;4375;52.486;13.424;2023-02-11T03:40:16;57.10;;;25.00;;
8675;SDS011;4375;52.486;13.424;2023-02-11T03:42:58;57.90;;;25.33;;
8675;SDS011;4375;52.486;13.424;2023-02-11T03:45:28;65.17;;;25.60;;
8675;SDS011;4375;52.486;13.424;2023-02-11T03:48:07;56.43;;;24.77;;
8675;SDS011;4375;52.486;13.424;2023-02-11T03:50:40;59.00;;;27.30;;
8675;SDS011;4375;52.486;13.424;2023-02-11T03:53:07;65.73;;;27.83;;
8675;SDS011;4375;52.486;13.424;2023-02-11T03:55:37;65.10;;;25.87;;
8675;SDS011;4375;52.486;13.424;2023-02-11T03:58:04;56.50;;;26.67;;
8675;SDS011;4375;52.486;13.424;2023-02-11T04:00:30;59.07;;;26.90;;
8675;SDS011;4375;52.486;13.424;2023-02-11T04:02:58;66.10;;;27.00;;
8675;SDS011;4375;52.486;13.424;2023-02-11T04:05:23;57.40;;;25.67;;
8675;SDS011;4375;52.486;13.424;2023-02-11T04:07:49;59.40;;;24.10;;
8675;SDS011;4375;52.486;13.424;2023-02-11T04:10:14;55.93;;;25.97;;
8675;SDS011;4375;52.486;13.424;2023-02-11T04:12:40;65.30;;;27.77;;
8675;SDS011;4375;52.486;13.424;2023-02-11T04:15:06;53.50;;;24.53;;
8675;SDS011;4375;52.486;13.424;2023-02-11T04:17:32;57.50;;;26.33;;
8675;SDS011;4375;52.486;13.424;2023-02-11T04:19:57;66.30;;;26.53;;
8675;SDS011;4375;52.486;13.424;2023-02-11T04:22:23;59.73;;;26.93;;
8675;SDS011;4375;52.486;13.424;2023-02-11T04:24:49;62.47;;;25.73;;
8675;SDS011;4375;52.486;13.424;2023-02-11T04:27:14;58.17;;;27.97;;
8675;SDS011;4375;52.486;13.424;2023-02-11T04:29:40;73.60;;;27.43;;
8675;SDS011;4375;52.486;13.424;2023-02-11T04:32:06;71.83;;;28.60;;
8675;SDS011;4375;52.486;13.424;2023-02-11T04:34:31;60.60;;;26.43;;
8675;SDS011;4375;52.486;13.424;2023-02-11T04:36:57;64.07;;;29.73;;
8675;SDS011;4375;52.486;13.424;2023-02-11T04:39:23;54.73;;;26.10;;
8675;SDS011;4375;52.486;13.424;2023-02-11T04:41:48;60.70;;;28.20;;
8675;SDS011;4375;52.486;13.424;2023-02-11T04:44:14;67.07;;;28.43;;
8675;SDS011;4375;52.486;13.424;2023-02-11T04:46:40;67.10;;;28.67;;
8675;SDS011;4375;52.486;13.424;2023-02-11T04:49:05;66.30;;;26.93;;
8675;SDS011;4375;52.486;13.424;2023-02-11T04:51:31;64.27;;;26.87;;
8675;SDS011;4375;52.486;13.424;2023-02-11T04:53:57;68.67;;;27.90;;
8675;SDS011;4375;52.486;13.424;2023-02-11T04:56:22;66.63;;;28.53;;
8675;SDS011;4375;52.486;13.424;2023-02-11T04:58:48;62.50;;;28.23;;
8675;SDS011;4375;52.486;13.424;2023-02-11T05:01:14;65.30;;;28.77;;
8675;SDS011;4375;52.486;13.424;2023-02-11T05:03:41;71.97;;;29.17;;
8675;SDS011;4375;52.486;13.424;2023-02-11T05:06:08;68.57;;;29.10;;
8675;SDS011;4375;52.486;13.424;2023-02-11T05:08:34;64.53;;;28.90;;
8675;SDS011;4375;52.486;13.424;2023-02-11T05:11:00;76.27;;;28.83;;
8675;SDS011;4375;52.486;13.424;2023-02-11T05:13:26;67.50;;;29.57;;
8675;SDS011;4375;52.486;13.424;2023-02-11T05:15:52;67.33;;;28.50;;
8675;SDS011;4375;52.486;13.424;2023-02-11T05:18:18;73.00;;;29.53;;
8675;SDS011;4375;52.486;13.424;2023-02-11T05:20:43;66.87;;;30.53;;
8675;SDS011;4375;52.486;13.424;2023-02-11T05:23:09;64.43;;;29.77;;
8675;SDS011;4375;52.486;13.424;2023-02-11T05:25:35;71.80;;;28.80;;
8675;SDS011;4375;52.486;13.424;2023-02-11T05:28:01;67.60;;;29.83;;
8675;SDS011;4375;52.486;13.424;2023-02-11T05:30:27;78.63;;;29.93;;
8675;SDS011;4375;52.486;13.424;2023-02-11T05:32:53;68.27;;;28.53;;
8675;SDS011;4375;52.486;13.424;2023-02-11T05:35:19;64.70;;;27.83;;
8675;SDS011;4375;52.486;13.424;2023-02-11T05:37:45;67.27;;;28.87;;
8675;SDS011;4375;52.486;13.424;2023-02-11T05:40:11;72.77;;;30.93;;
8675;SDS011;4375;52.486;13.424;2023-02-11T05:42:37;64.07;;;30.00;;
8675;SDS011;4375;52.486;13.424;2023-02-11T05:45:02;61.60;;;28.33;;
8675;SDS011;4375;52.486;13.424;2023-02-11T05:47:28;62.17;;;28.43;;
8675;SDS011;4375;52.486;13.424;2023-02-11T05:49:54;70.37;;;31.37;;
8675;SDS011;4375;52.486;13.424;2023-02-11T05:52:20;79.87;;;33.27;;
8675;SDS011;4375;52.486;13.424;2023-02-11T05:54:46;77.13;;;31.67;;
8675;SDS011;4375;52.486;13.424;2023-02-11T05:57:12;71.37;;;29.80;;
8675;SDS011;4375;52.486;13.424;2023-02-11T05:59:38;76.67;;;31.53;;
8675;SDS011;4375;52.486;13.424;2023-02-11T06:02:04;71.73;;;30.80;;
8675;SDS011;4375;52.486;13.424;2023-02-11T06:04:31;77.57;;;30.07;;
8675;SDS011;4375;52.486;13.424;2023-02-11T06:06:57;77.50;;;30.97;;
8675;SDS011;4375;52.486;13.424;2023-02-11T06:09:23;74.80;;;30.67;;
8675;SDS011;4375;52.486;13.424;2023-02-11T06:11:49;75.47;;;31.03;;
8675;SDS011;4375;52.486;13.424;2023-02-11T06:14:14;76.70;;;32.13;;
8675;SDS011;4375;52.486;13.424;2023-02-11T06:16:40;70.70;;;31.10;;
8675;SDS011;4375;52.486;13.424;2023-02-11T06:19:05;71.50;;;30.93;;
8675;SDS011;4375;52.486;13.424;2023-02-11T06:21:31;78.33;;;33.27;;
8675;SDS011;4375;52.486;13.424;2023-02-11T06:23:57;71.77;;;31.97;;
8675;SDS011;4375;52.486;13.424;2023-02-11T06:26:22;81.43;;;34.30;;
8675;SDS011;4375;52.486;13.424;2023-02-11T06:28:48;75.60;;;31.53;;
8675;SDS011;4375;52.486;13.424;2023-02-11T06:31:14;75.03;;;32.00;;
8675;SDS011;4375;52.486;13.424;2023-02-11T06:33:40;72.63;;;34.73;;
8675;SDS011;4375;52.486;13.424;2023-02-11T06:36:13;79.83;;;33.10;;
8675;SDS011;4375;52.486;13.424;2023-02-11T06:38:41;80.87;;;32.83;;
8675;SDS011;4375;52.486;13.424;2023-02-11T06:41:10;81.40;;;34.70;;
8675;SDS011;4375;52.486;13.424;2023-02-11T06:43:37;74.23;;;33.80;;
8675;SDS011;4375;52.486;13.424;2023-02-11T06:46:04;85.93;;;33.63;;
8675;SDS011;4375;52.486;13.424;2023-02-11T06:48:30;78.50;;;34.37;;
8675;SDS011;4375;52.486;13.424;2023-02-11T06:50:55;76.83;;;32.70;;
8675;SDS011;4375;52.486;13.424;2023-02-11T06:53:25;80.87;;;34.10;;
8675;SDS011;4375;52.486;13.424;2023-02-11T06:55:50;81.03;;;33.80;;
8675;SDS011;4375;52.486;13.424;2023-02-11T06:58:16;75.17;;;31.00;;
8675;SDS011;4375;52.486;13.424;2023-02-11T07:00:41;75.47;;;33.90;;
8675;SDS011;4375;52.486;13.424;2023-02-11T07:03:07;79.83;;;35.50;;
8675;SDS011;4375;52.486;13.424;2023-02-11T07:05:33;82.03;;;33.63;;
8675;SDS011;4375;52.486;13.424;2023-02-11T07:07:59;74.27;;;32.87;;
8675;SDS011;4375;52.486;13.424;2023-02-11T07:10:24;76.67;;;33.30;;
8675;SDS011;4375;52.486;13.424;2023-02-11T07:12:50;78.70;;;33.00;;
8675;SDS011;4375;52.486;13.424;2023-02-11T07:15:16;77.10;;;33.03;;
8675;SDS011;4375;52.486;13.424;2023-02-11T07:17:41;75.00;;;33.73;;
8675;SDS011;4375;52.486;13.424;2023-02-11T07:20:07;80.67;;;34.43;;
8675;SDS011;4375;52.486;13.424;2023-02-11T07:22:35;77.30;;;33.37;;
8675;SDS011;4375;52.486;13.424;2023-02-11T07:25:01;70.40;;;33.30;;
8675;SDS011;4375;52.486;13.424;2023-02-11T07:27:28;69.53;;;31.63;;
8675;SDS011;4375;52.486;13.424;2023-02-11T07:29:53;74.20;;;33.00;;
8675;SDS011;4375;52.486;13.424;2023-02-11T07:32:19;75.50;;;32.00;;
8675;SDS011;4375;52.486;13.424;2023-02-11T07:34:45;81.10;;;36.10;;
8675;SDS011;4375;52.486;13.424;2023-02-11T07:37:12;81.53;;;34.03;;
8675;SDS011;4375;52.486;13.424;2023-02-11T07:39:38;80.03;;;34.50;;
8675;SDS011;4375;52.486;13.424;2023-02-11T07:42:03;84.13;;;34.13;;
8675;SDS011;4375;52.486;13.424;2023-02-11T07:44:29;79.50;;;32.47;;
8675;SDS011;4375;52.486;13.424;2023-02-11T07:46:57;71.17;;;32.53;;
8675;SDS011;4375;52.486;13.424;2023-02-11T07:49:23;78.77;;;32.77;;
8675;SDS011;4375;52.486;13.424;2023-02-11T07:51:48;75.43;;;32.73;;
8675;SDS011;4375;52.486;13.424;2023-02-11T07:54:15;70.00;;;32.77;;
8675;SDS011;4375;52.486;13.424;2023-02-11T07:56:41;75.00;;;32.30;;
8675;SDS011;4375;52.486;13.424;2023-02-11T07:59:07;81.13;;;32.53;;
8675;SDS011;4375;52.486;13.424;2023-02-11T08:01:32;77.90;;;32.03;;
8675;SDS011;4375;52.486;13.424;2023-02-11T08:03:58;74.40;;;31.53;;
8675;SDS011;4375;52.486;13.424;2023-02-11T08:06:26;75.17;;;32.37;;
8675;SDS011;4375;52.486;13.424;2023-02-11T08:08:53;77.60;;;31.83;;
8675;SDS011;4375;52.486;13.424;2023-02-11T08:11:21;82.40;;;32.10;;
8675;SDS011;4375;52.486;13.424;2023-02-11T08:13:50;75.90;;;32.80;;
8675;SDS011;4375;52.486;13.424;2023-02-11T08:16:20;72.67;;;31.37;;
8675;SDS011;4375;52.486;13.424;2023-02-11T08:18:50;77.33;;;31.00;;
8675;SDS011;4375;52.486;13.424;2023-02-11T08:21:17;78.20;;;32.70;;
8675;SDS011;4375;52.486;13.424;2023-02-11T08:23:44;74.13;;;32.90;;
8675;SDS011;4375;52.486;13.424;2023-02-11T08:26:15;88.00;;;32.33;;
8675;SDS011;4375;52.486;13.424;2023-02-11T08:28:43;69.83;;;31.27;;
8675;SDS011;4375;52.486;13.424;2023-02-11T08:31:11;78.00;;;31.63;;
8675;SDS011;4375;52.486;13.424;2023-02-11T08:33:42;69.97;;;30.30;;
8675;SDS011;4375;52.486;13.424;2023-02-11T08:36:10;73.40;;;30.00;;
8675;SDS011;4375;52.486;13.424;2023-02-11T08:39:19;72.80;;;29.63;;
8675;SDS011;4375;52.486;13.424;2023-02-11T08:41:53;75.93;;;31.30;;
8675;SDS011;4375;52.486;13.424;2023-02-11T08:44:21;74.50;;;31.37;;
8675;SDS011;4375;52.486;13.424;2023-02-11T08:46:47;73.40;;;31.10;;
8675;SDS011;4375;52.486;13.424;2023-02-11T08:49:13;68.47;;;28.73;;
8675;SDS011;4375;52.486;13.424;2023-02-11T08:51:41;70.77;;;31.97;;
8675;SDS011;4375;52.486;13.424;2023-02-11T08:54:07;67.57;;;30.40;;
8675;SDS011;4375;52.486;13.424;2023-02-11T08:56:34;82.20;;;31.07;;
8675;SDS011;4375;52.486;13.424;2023-02-11T08:59:00;70.63;;;32.00;;
8675;SDS011;4375;52.486;13.424;2023-02-11T09:01:28;83.73;;;30.10;;
8675;SDS011;4375;52.486;13.424;2023-02-11T09:03:55;69.70;;;30.10;;
8675;SDS011;4375;52.486;13.424;2023-02-11T09:06:22;72.03;;;30.00;;
8675;SDS011;4375;52.486;13.424;2023-02-11T09:08:49;71.37;;;30.37;;
8675;SDS011;4375;52.486;13.424;2023-02-11T09:11:17;68.37;;;29.40;;
8675;SDS011;4375;52.486;13.424;2023-02-11T09:13:44;70.77;;;29.43;;
8675;SDS011;4375;52.486;13.424;2023-02-11T09:16:18;72.07;;;30.20;;
8675;SDS011;4375;52.486;13.424;2023-02-11T09:18:46;69.80;;;29.40;;
8675;SDS011;4375;52.486;13.424;2023-02-11T09:21:12;70.77;;;30.43;;
8675;SDS011;4375;52.486;13.424;2023-02-11T09:23:42;59.77;;;29.00;;
8675;SDS011;4375;52.486;13.424;2023-02-11T09:26:19;63.57;;;28.50;;
8675;SDS011;4375;52.486;13.424;2023-02-11T09:28:46;69.13;;;30.93;;
8675;SDS011;4375;52.486;13.424;2023-02-11T09:31:18;69.23;;;31.47;;
8675;SDS011;4375;52.486;13.424;2023-02-11T09:33:45;76.37;;;29.47;;
8675;SDS011;4375;52.486;13.424;2023-02-11T09:36:17;66.07;;;30.53;;
8675;SDS011;4375;52.486;13.424;2023-02-11T09:38:44;70.73;;;27.70;;
8675;SDS011;4375;52.486;13.424;2023-02-11T09:41:34;62.03;;;28.93;;
8675;SDS011;4375;52.486;13.424;2023-02-11T09:44:04;65.17;;;26.87;;
8675;SDS011;4375;52.486;13.424;2023-02-11T09:46:46;65.53;;;28.30;;
8675;SDS011;4375;52.486;13.424;2023-02-11T09:49:21;68.30;;;28.00;;
8675;SDS011;4375;52.486;13.424;2023-02-11T09:51:57;63.83;;;28.10;;
8675;SDS011;4375;52.486;13.424;2023-02-11T09:54:48;67.47;;;28.57;;
8675;SDS011;4375;52.486;13.424;2023-02-11T09:57:14;64.50;;;28.90;;
8675;SDS011;4375;52.486;13.424;2023-02-11T09:59:41;65.70;;;27.50;;
8675;SDS011;4375;52.486;13.424;2023-02-11T10:02:16;62.50;;;26.40;;
8675;SDS011;4375;52.486;13.424;2023-02-11T10:07:29;58.07;;;27.30;;
8675;SDS011;4375;52.486;13.424;2023-02-11T10:12:56;58.37;;;26.73;;
8675;SDS011;4375;52.486;13.424;2023-02-11T10:15:56;59.53;;;25.30;;
8675;SDS011;4375;52.486;13.424;2023-02-11T10:18:37;62.47;;;27.00;;
8675;SDS011;4375;52.486;13.424;2023-02-11T10:24:18;60.83;;;26.07;;
8675;SDS011;4375;52.486;13.424;2023-02-11T10:26:44;56.47;;;26.13;;
8675;SDS011;4375;52.486;13.424;2023-02-11T10:32:16;60.07;;;25.73;;
8675;SDS011;4375;52.486;13.424;2023-02-11T10:34:57;56.93;;;25.80;;
8675;SDS011;4375;52.486;13.424;2023-02-11T10:37:28;67.80;;;26.70;;
8675;SDS011;4375;52.486;13.424;2023-02-11T10:39:54;62.00;;;25.00;;
8675;SDS011;4375;52.486;13.424;2023-02-11T10:42:20;66.33;;;27.13;;
8675;SDS011;4375;52.486;13.424;2023-02-11T10:47:27;57.67;;;27.07;;
8675;SDS011;4375;52.486;13.424;2023-02-11T10:49:56;60.07;;;26.57;;
8675;SDS011;4375;52.486;13.424;2023-02-11T10:52:27;55.57;;;25.70;;
8675;SDS011;4375;52.486;13.424;2023-02-11T10:57:39;55.90;;;25.33;;
8675;SDS011;4375;52.486;13.424;2023-02-11T11:02:56;60.20;;;24.33;;
8675;SDS011;4375;52.486;13.424;2023-02-11T11:05:36;56.03;;;24.20;;
8675;SDS011;4375;52.486;13.424;2023-02-11T11:08:12;57.03;;;23.83;;
8675;SDS011;4375;52.486;13.424;2023-02-11T11:10:39;63.10;;;24.93;;
8675;SDS011;4375;52.486;13.424;2023-02-11T11:16:06;56.53;;;23.37;;
8675;SDS011;4375;52.486;13.424;2023-02-11T11:18:33;57.60;;;24.97;;
8675;SDS011;4375;52.486;13.424;2023-02-11T11:21:03;64.00;;;26.17;;
8675;SDS011;4375;52.486;13.424;2023-02-11T11:23:33;49.63;;;23.43;;
8675;SDS011;4375;52.486;13.424;2023-02-11T11:26:10;53.13;;;23.60;;
8675;SDS011;4375;52.486;13.424;2023-02-11T11:31:24;58.37;;;24.57;;
8675;SDS011;4375;52.486;13.424;2023-02-11T11:33:50;56.30;;;22.80;;
8675;SDS011;4375;52.486;13.424;2023-02-11T11:36:37;54.40;;;23.30;;
8675;SDS011;4375;52.486;13.424;2023-02-11T11:44:29;55.50;;;23.90;;
8675;SDS011;4375;52.486;13.424;2023-02-11T11:52:36;53.50;;;22.50;;
8675;SDS011;4375;52.486;13.424;2023-02-11T11:55:17;58.50;;;20.53;;
8675;SDS011;4375;52.486;13.424;2023-02-11T11:57:43;51.20;;;23.03;;
8675;SDS011;4375;52.486;13.424;2023-02-11T12:00:13;48.80;;;21.93;;
8675;SDS011;4375;52.486;13.424;2023-02-11T12:05:25;49.60;;;21.10;;
8675;SDS011;4375;52.486;13.424;2023-02-11T12:16:56;47.20;;;19.83;;
8675;SDS011;4375;52.486;13.424;2023-02-11T12:20:15;56.50;;;21.50;;
8675;SDS011;4375;52.486;13.424;2023-02-11T12:28:41;53.37;;;19.50;;
8675;SDS011;4375;52.486;13.424;2023-02-11T12:31:46;43.13;;;19.90;;
8675;SDS011;4375;52.486;13.424;2023-02-11T12:34:41;44.10;;;17.30;;
8675;SDS011;4375;52.486;13.424;2023-02-11T12:40:32;44.70;;;18.07;;
8675;SDS011;4375;52.486;13.424;2023-02-11T12:43:28;47.63;;;17.67;;
8675;SDS011;4375;52.486;13.424;2023-02-11T12:48:59;53.53;;;17.73;;
8675;SDS011;4375;52.486;13.424;2023-02-11T12:54:42;49.23;;;18.00;;
8675;SDS011;4375;52.486;13.424;2023-02-11T12:59:57;47.73;;;19.13;;
8675;SDS011;4375;52.486;13.424;2023-02-11T13:08:01;47.40;;;15.97;;
8675;SDS011;4375;52.486;13.424;2023-02-11T13:10:33;40.13;;;16.83;;
8675;SDS011;4375;52.486;13.424;2023-02-11T13:13:03;54.03;;;16.97;;
8675;SDS011;4375;52.486;13.424;2023-02-11T13:15:43;45.77;;;16.97;;
8675;SDS011;4375;52.486;13.424;2023-02-11T13:18:35;37.07;;;15.37;;
8675;SDS011;4375;52.486;13.424;2023-02-11T13:21:15;43.17;;;17.57;;
8675;SDS011;4375;52.486;13.424;2023-02-11T13:28:56;40.10;;;16.73;;
8675;SDS011;4375;52.486;13.424;2023-02-11T13:31:33;41.50;;;16.37;;
8675;SDS011;4375;52.486;13.424;2023-02-11T13:33:58;46.40;;;17.97;;
8675;SDS011;4375;52.486;13.424;2023-02-11T13:36:25;41.13;;;16.20;;
8675;SDS011;4375;52.486;13.424;2023-02-11T13:39:03;44.07;;;15.90;;
8675;SDS011;4375;52.486;13.424;2023-02-11T13:41:37;43.20;;;17.20;;
8675;SDS011;4375;52.486;13.424;2023-02-11T13:44:15;37.73;;;17.27;;
8675;SDS011;4375;52.486;13.424;2023-02-11T13:46:47;38.17;;;15.03;;
8675;SDS011;4375;52.486;13.424;2023-02-11T13:49:21;44.33;;;16.17;;
8675;SDS011;4375;52.486;13.424;2023-02-11T13:51:49;38.23;;;16.00;;
8675;SDS011;4375;52.486;13.424;2023-02-11T13:54:24;43.37;;;17.60;;
8675;SDS011;4375;52.486;13.424;2023-02-11T13:57:36;37.70;;;15.57;;
8675;SDS011;4375;52.486;13.424;2023-02-11T13:59:49;37.67;;;15.03;;
8675;SDS011;4375;52.486;13.424;2023-02-11T14:05:01;34.17;;;13.73;;
8675;SDS011;4375;52.486;13.424;2023-02-11T14:11:01;37.60;;;14.20;;
8675;SDS011;4375;52.486;13.424;2023-02-11T14:16:22;35.33;;;15.50;;
8675;SDS011;4375;52.486;13.424;2023-02-11T14:26:54;38.50;;;14.00;;
8675;SDS011;4375;52.486;13.424;2023-02-11T14:37:35;34.90;;;14.33;;
8675;SDS011;4375;52.486;13.424;2023-02-11T14:42:55;38.27;;;15.03;;
8675;SDS011;4375;52.486;13.424;2023-02-11T14:45:26;37.60;;;13.27;;
8675;SDS011;4375;52.486;13.424;2023-02-11T14:48:01;30.17;;;12.80;;
8675;SDS011;4375;52.486;13.424;2023-02-11T14:50:45;38.10;;;12.10;;
8675;SDS011;4375;52.486;13.424;2023-02-11T14:53:16;33.47;;;12.17;;
8675;SDS011;4375;52.486;13.424;2023-02-11T14:55:46;34.27;;;13.07;;
8675;SDS011;4375;52.486;13.424;2023-02-11T14:58:20;30.10;;;12.37;;
8675;SDS011;4375;52.486;13.424;2023-02-11T15:00:49;35.50;;;12.33;;
8675;SDS011;4375;52.486;13.424;2023-02-11T15:03:25;31.97;;;11.53;;
8675;SDS011;4375;52.486;13.424;2023-02-11T15:05:53;32.23;;;12.50;;
8675;SDS011;4375;52.486;13.424;2023-02-11T15:08:21;32.47;;;12.00;;
8675;SDS011;4375;52.486;13.424;2023-02-11T15:10:48;29.30;;;11.17;;
8675;SDS011;4375;52.486;13.424;2023-02-11T15:13:15;28.87;;;11.20;;
8675;SDS011;4375;52.486;13.424;2023-02-11T15:15:44;29.70;;;11.80;;
8675;SDS011;4375;52.486;13.424;2023-02-11T15:18:15;28.87;;;11.17;;
8675;SDS011;4375;52.486;13.424;2023-02-11T15:20:48;30.97;;;12.57;;
8675;SDS011;4375;52.486;13.424;2023-02-11T15:23:20;29.83;;;11.27;;
8675;SDS011;4375;52.486;13.424;2023-02-11T15:25:48;31.60;;;13.27;;
8675;SDS011;4375;52.486;13.424;2023-02-11T15:28:26;32.73;;;12.20;;
8675;SDS011;4375;52.486;13.424;2023-02-11T15:31:01;33.63;;;11.83;;
8675;SDS011;4375;52.486;13.424;2023-02-11T15:33:28;28.23;;;11.10;;
8675;SDS011;4375;52.486;13.424;2023-02-11T15:35:56;26.97;;;10.63;;
8675;SDS011;4375;52.486;13.424;2023-02-11T15:38:25;28.67;;;10.40;;
8675;SDS011;4375;52.486;13.424;2023-02-11T15:40:53;32.73;;;11.80;;
8675;SDS011;4375;52.486;13.424;2023-02-11T15:43:21;30.33;;;10.60;;
8675;SDS011;4375;52.486;13.424;2023-02-11T15:48:17;27.70;;;10.27;;
8675;SDS011;4375;52.486;13.424;2023-02-11T15:50:53;24.83;;;10.50;;
8675;SDS011;4375;52.486;13.424;2023-02-11T15:53:26;25.57;;;9.70;;
8675;SDS011;4375;52.486;13.424;2023-02-11T15:56:17;26.20;;;10.40;;
8675;SDS011;4375;52.486;13.424;2023-02-11T15:58:41;25.00;;;10.13;;
8675;SDS011;4375;52.486;13.424;2023-02-11T16:01:09;29.47;;;10.47;;
8675;SDS011;4375;52.486;13.424;2023-02-11T16:03:35;27.53;;;10.33;;
8675;SDS011;4375;52.486;13.424;2023-02-11T16:06:14;27.87;;;10.80;;
8675;SDS011;4375;52.486;13.424;2023-02-11T16:08:40;27.53;;;10.23;;
8675;SDS011;4375;52.486;13.424;2023-02-11T16:11:54;25.93;;;10.17;;
8675;SDS011;4375;52.486;13.424;2023-02-11T16:14:18;26.10;;;10.60;;
8675;SDS011;4375;52.486;13.424;2023-02-11T16:17:38;27.33;;;10.27;;
8675;SDS011;4375;52.486;13.424;2023-02-11T16:19:43;26.53;;;9.97;;
8675;SDS011;4375;52.486;13.424;2023-02-11T16:22:13;26.77;;;10.03;;
8675;SDS011;4375;52.486;13.424;2023-02-11T16:24:49;27.70;;;11.70;;
8675;SDS011;4375;52.486;13.424;2023-02-11T16:27:20;28.20;;;11.03;;
8675;SDS011;4375;52.486;13.424;2023-02-11T16:29:56;30.50;;;11.30;;
8675;SDS011;4375;52.486;13.424;2023-02-11T16:32:23;25.33;;;9.57;;
8675;SDS011;4375;52.486;13.424;2023-02-11T16:34:51;26.60;;;10.43;;
8675;SDS011;4375;52.486;13.424;2023-02-11T16:37:19;26.87;;;10.80;;
8675;SDS011;4375;52.486;13.424;2023-02-11T16:42:33;25.47;;;9.87;;
8675;SDS011;4375;52.486;13.424;2023-02-11T16:44:59;26.77;;;10.20;;
8675;SDS011;4375;52.486;13.424;2023-02-11T16:47:25;25.50;;;10.03;;
8675;SDS011;4375;52.486;13.424;2023-02-11T16:49:52;24.70;;;10.07;;
8675;SDS011;4375;52.486;13.424;2023-02-11T16:52:19;25.17;;;10.50;;
8675;SDS011;4375;52.486;13.424;2023-02-11T16:54:45;27.47;;;9.83;;
8675;SDS011;4375;52.486;13.424;2023-02-11T16:57:15;26.07;;;10.60;;
8675;SDS011;4375;52.486;13.424;2023-02-11T16:59:43;25.00;;;10.30;;
8675;SDS011;4375;52.486;13.424;2023-02-11T17:02:17;26.43;;;10.93;;
8675;SDS011;4375;52.486;13.424;2023-02-11T17:04:58;26.03;;;11.30;;
8675;SDS011;4375;52.486;13.424;2023-02-11T17:07:28;29.57;;;11.93;;
8675;SDS011;4375;52.486;13.424;2023-02-11T17:09:54;31.57;;;10.83;;
8675;SDS011;4375;52.486;13.424;2023-02-11T17:12:20;25.37;;;11.00;;
8675;SDS011;4375;52.486;13.424;2023-02-11T17:14:49;27.57;;;11.30;;
8675;SDS011;4375;52.486;13.424;2023-02-11T17:17:15;29.47;;;11.93;;